sensor_id;sensor_type;location;lat;lon;timestamp;temperature;humidity
14182;DHT22;7171;50.936;6.764;2023-06-22T00:00:32;23.70;94.60
14182;DHT22;7171;50.936;6.764;2023-06-22T00:03:00;23.70;94.00
14182;DHT22;7171;50.936;6.764;2023-06-22T00:05:27;23.70;94.90
14182;DHT22;7171;50.936;6.764;2023-06-22T00:07:54;23.70;95.40
14182;DHT22;7171;50.936;6.764;2023-06-22T00:10:20;23.70;96.40
14182;DHT22;7171;50.936;6.764;2023-06-22T00:12:47;23.70;95.20
14182;DHT22;7171;50.936;6.764;2023-06-22T00:15:14;23.80;96.30
14182;DHT22;7171;50.936;6.764;2023-06-22T00:17:41;23.80;97.00
14182;DHT22;7171;50.936;6.764;2023-06-22T00:20:10;23.70;96.50
14182;DHT22;7171;50.936;6.764;2023-06-22T00:22:37;23.70;96.20
14182;DHT22;7171;50.936;6.764;2023-06-22T00:25:06;23.80;97.00
14182;DHT22;7171;50.936;6.764;2023-06-22T00:27:33;23.70;96.00
14182;DHT22;7171;50.936;6.764;2023-06-22T00:29:59;23.70;94.50
14182;DHT22;7171;50.936;6.764;2023-06-22T00:32:26;23.80;96.00
14182;DHT22;7171;50.936;6.764;2023-06-22T00:34:53;23.80;95.60
14182;DHT22;7171;50.936;6.764;2023-06-22T00:37:21;23.80;95.20
14182;DHT22;7171;50.936;6.764;2023-06-22T00:39:50;23.60;95.40
14182;DHT22;7171;50.936;6.764;2023-06-22T00:42:17;23.80;96.10
14182;DHT22;7171;50.936;6.764;2023-06-22T00:44:44;23.80;96.40
14182;DHT22;7171;50.936;6.764;2023-06-22T00:47:11;23.80;96.40
14182;DHT22;7171;50.936;6.764;2023-06-22T00:49:39;23.80;96.60
14182;DHT22;7171;50.936;6.764;2023-06-22T00:52:07;23.80;96.70
14182;DHT22;7171;50.936;6.764;2023-06-22T00:54:40;23.80;96.20
14182;DHT22;7171;50.936;6.764;2023-06-22T00:57:11;23.90;96.40
14182;DHT22;7171;50.936;6.764;2023-06-22T00:59:38;23.70;96.50
14182;DHT22;7171;50.936;6.764;2023-06-22T01:02:05;23.70;96.80
14182;DHT22;7171;50.936;6.764;2023-06-22T01:04:35;23.80;98.00
14182;DHT22;7171;50.936;6.764;2023-06-22T01:07:07;23.70;97.40
14182;DHT22;7171;50.936;6.764;2023-06-22T01:09:49;23.70;98.30
14182;DHT22;7171;50.936;6.764;2023-06-22T01:12:18;23.70;99.60
14182;DHT22;7171;50.936;6.764;2023-06-22T01:19:49;23.50;99.90
14182;DHT22;7171;50.936;6.764;2023-06-22T01:22:23;23.60;99.90
14182;DHT22;7171;50.936;6.764;2023-06-22T01:27:33;23.50;99.90
14182;DHT22;7171;50.936;6.764;2023-06-22T01:32:37;23.40;99.90
14182;DHT22;7171;50.936;6.764;2023-06-22T01:35:06;23.60;99.90
14182;DHT22;7171;50.936;6.764;2023-06-22T01:37:34;23.50;99.90
14182;DHT22;7171;50.936;6.764;2023-06-22T01:45:00;23.30;99.90
14182;DHT22;7171;50.936;6.764;2023-06-22T01:47:29;23.60;99.90
14182;DHT22;7171;50.936;6.764;2023-06-22T01:49:58;23.30;99.90
14182;DHT22;7171;50.936;6.764;2023-06-22T01:52:25;23.40;99.90
14182;DHT22;7171;50.936;6.764;2023-06-22T01:54:52;23.50;99.90
14182;DHT22;7171;50.936;6.764;2023-06-22T01:57:18;23.40;99.90
14182;DHT22;7171;50.936;6.764;2023-06-22T02:09:45;23.40;99.90
14182;DHT22;7171;50.936;6.764;2023-06-22T02:12:18;23.50;99.90
14182;DHT22;7171;50.936;6.764;2023-06-22T02:14:45;23.50;99.90
14182;DHT22;7171;50.936;6.764;2023-06-22T02:17:13;23.40;99.90
14182;DHT22;7171;50.936;6.764;2023-06-22T02:19:41;23.40;99.90
14182;DHT22;7171;50.936;6.764;2023-06-22T02:24:38;23.10;99.90
14182;DHT22;7171;50.936;6.764;2023-06-22T02:27:05;23.30;99.90
14182;DHT22;7171;50.936;6.764;2023-06-22T02:29:32;23.20;99.90
14182;DHT22;7171;50.936;6.764;2023-06-22T02:34:26;23.20;99.90
14182;DHT22;7171;50.936;6.764;2023-06-22T02:36:53;23.30;99.90
14182;DHT22;7171;50.936;6.764;2023-06-22T02:44:17;23.00;99.90
14182;DHT22;7171;50.936;6.764;2023-06-22T02:46:44;23.10;99.90
14182;DHT22;7171;50.936;6.764;2023-06-22T02:49:11;23.20;98.70
14182;DHT22;7171;50.936;6.764;2023-06-22T02:54:05;23.30;99.50
14182;DHT22;7171;50.936;6.764;2023-06-22T02:56:34;23.00;99.00
14182;DHT22;7171;50.936;6.764;2023-06-22T02:59:02;23.10;99.90
14182;DHT22;7171;50.936;6.764;2023-06-22T03:01:29;22.90;99.80
14182;DHT22;7171;50.936;6.764;2023-06-22T03:04:01;23.00;99.90
14182;DHT22;7171;50.936;6.764;2023-06-22T03:06:28;23.00;99.90
14182;DHT22;7171;50.936;6.764;2023-06-22T03:08:59;23.00;99.90
14182;DHT22;7171;50.936;6.764;2023-06-22T03:11:26;23.00;99.90
14182;DHT22;7171;50.936;6.764;2023-06-22T03:13:54;23.00;99.90
14182;DHT22;7171;50.936;6.764;2023-06-22T03:16:20;22.90;99.90
14182;DHT22;7171;50.936;6.764;2023-06-22T03:18:47;22.80;99.90
14182;DHT22;7171;50.936;6.764;2023-06-22T03:21:14;22.90;99.90
14182;DHT22;7171;50.936;6.764;2023-06-22T03:31:05;22.70;99.90
14182;DHT22;7171;50.936;6.764;2023-06-22T03:33:33;22.80;99.90
14182;DHT22;7171;50.936;6.764;2023-06-22T07:42:08;24.50;94.00
14182;DHT22;7171;50.936;6.764;2023-06-22T07:44:35;24.60;94.50
14182;DHT22;7171;50.936;6.764;2023-06-22T07:47:01;24.50;94.60
14182;DHT22;7171;50.936;6.764;2023-06-22T07:49:29;24.50;94.60
14182;DHT22;7171;50.936;6.764;2023-06-22T07:51:56;24.50;94.70
14182;DHT22;7171;50.936;6.764;2023-06-22T07:54:23;24.60;94.80
14182;DHT22;7171;50.936;6.764;2023-06-22T07:56:50;24.60;94.90
14182;DHT22;7171;50.936;6.764;2023-06-22T07:59:16;24.70;95.00
14182;DHT22;7171;50.936;6.764;2023-06-22T08:01:43;24.70;95.00
14182;DHT22;7171;50.936;6.764;2023-06-22T08:04:10;24.70;95.00
14182;DHT22;7171;50.936;6.764;2023-06-22T08:06:38;24.70;95.10
14182;DHT22;7171;50.936;6.764;2023-06-22T08:09:05;24.70;95.20
14182;DHT22;7171;50.936;6.764;2023-06-22T08:11:31;24.80;95.30
14182;DHT22;7171;50.936;6.764;2023-06-22T08:13:59;24.80;95.30
14182;DHT22;7171;50.936;6.764;2023-06-22T08:16:26;24.90;95.40
14182;DHT22;7171;50.936;6.764;2023-06-22T08:18:52;25.00;95.50
14182;DHT22;7171;50.936;6.764;2023-06-22T08:21:20;25.00;95.60
14182;DHT22;7171;50.936;6.764;2023-06-22T08:23:48;25.10;95.80
14182;DHT22;7171;50.936;6.764;2023-06-22T08:28:42;25.30;95.70
14182;DHT22;7171;50.936;6.764;2023-06-22T08:31:09;25.30;95.70
14182;DHT22;7171;50.936;6.764;2023-06-22T08:33:39;25.40;95.80
14182;DHT22;7171;50.936;6.764;2023-06-22T08:36:06;25.40;95.80
14182;DHT22;7171;50.936;6.764;2023-06-22T08:38:33;25.50;96.00
14182;DHT22;7171;50.936;6.764;2023-06-22T08:41:01;25.50;96.00
14182;DHT22;7171;50.936;6.764;2023-06-22T08:43:28;25.60;96.00
14182;DHT22;7171;50.936;6.764;2023-06-22T08:45:55;25.70;96.30
14182;DHT22;7171;50.936;6.764;2023-06-22T08:48:22;25.70;96.30
14182;DHT22;7171;50.936;6.764;2023-06-22T08:50:48;25.80;96.40
14182;DHT22;7171;50.936;6.764;2023-06-22T08:53:15;25.90;96.40
14182;DHT22;7171;50.936;6.764;2023-06-22T08:55:42;26.00;96.40
14182;DHT22;7171;50.936;6.764;2023-06-22T08:58:10;26.00;96.30
14182;DHT22;7171;50.936;6.764;2023-06-22T09:00:37;26.10;96.40
14182;DHT22;7171;50.936;6.764;2023-06-22T09:03:04;26.30;96.50
14182;DHT22;7171;50.936;6.764;2023-06-22T09:05:30;26.30;96.40
14182;DHT22;7171;50.936;6.764;2023-06-22T09:07:57;26.40;96.60
14182;DHT22;7171;50.936;6.764;2023-06-22T09:10:25;26.50;96.60
14182;DHT22;7171;50.936;6.764;2023-06-22T09:12:51;26.60;96.60
14182;DHT22;7171;50.936;6.764;2023-06-22T09:15:20;26.70;96.70
14182;DHT22;7171;50.936;6.764;2023-06-22T09:17:47;26.80;96.50
14182;DHT22;7171;50.936;6.764;2023-06-22T09:20:14;26.80;96.30
14182;DHT22;7171;50.936;6.764;2023-06-22T09:25:09;27.00;96.30
14182;DHT22;7171;50.936;6.764;2023-06-22T09:27:35;27.10;96.30
14182;DHT22;7171;50.936;6.764;2023-06-22T09:30:03;27.20;96.10
14182;DHT22;7171;50.936;6.764;2023-06-22T09:32:31;27.20;96.10
14182;DHT22;7171;50.936;6.764;2023-06-22T09:34:58;27.30;97.90
14182;DHT22;7171;50.936;6.764;2023-06-22T09:37:25;27.40;99.90
14182;DHT22;7171;50.936;6.764;2023-06-22T09:39:51;27.40;99.90
14182;DHT22;7171;50.936;6.764;2023-06-22T09:42:18;27.20;98.40
14182;DHT22;7171;50.936;6.764;2023-06-22T09:44:46;27.30;95.90
14182;DHT22;7171;50.936;6.764;2023-06-22T09:49:41;27.40;95.70
14182;DHT22;7171;50.936;6.764;2023-06-22T09:52:08;27.80;96.10
14182;DHT22;7171;50.936;6.764;2023-06-22T09:54:36;27.60;96.10
14182;DHT22;7171;50.936;6.764;2023-06-22T10:06:53;27.60;95.10
14182;DHT22;7171;50.936;6.764;2023-06-22T10:09:20;27.60;95.20
14182;DHT22;7171;50.936;6.764;2023-06-22T10:11:46;27.60;95.20
14182;DHT22;7171;50.936;6.764;2023-06-22T10:14:13;27.50;95.10
14182;DHT22;7171;50.936;6.764;2023-06-22T10:16:40;27.50;95.10
14182;DHT22;7171;50.936;6.764;2023-06-22T10:19:07;27.40;95.10
14182;DHT22;7171;50.936;6.764;2023-06-22T10:21:34;27.30;95.30
14182;DHT22;7171;50.936;6.764;2023-06-22T10:24:02;27.30;95.50
14182;DHT22;7171;50.936;6.764;2023-06-22T10:26:31;27.20;95.50
14182;DHT22;7171;50.936;6.764;2023-06-22T10:28:58;27.10;95.60
14182;DHT22;7171;50.936;6.764;2023-06-22T10:31:25;26.80;95.40
14182;DHT22;7171;50.936;6.764;2023-06-22T10:33:53;26.60;95.60
14182;DHT22;7171;50.936;6.764;2023-06-22T10:36:20;26.50;96.10
14182;DHT22;7171;50.936;6.764;2023-06-22T10:38:47;26.20;99.20
14182;DHT22;7171;50.936;6.764;2023-06-22T10:41:15;26.10;99.70
14182;DHT22;7171;50.936;6.764;2023-06-22T10:43:42;26.00;96.40
14182;DHT22;7171;50.936;6.764;2023-06-22T10:46:09;25.50;96.30
14182;DHT22;7171;50.936;6.764;2023-06-22T10:48:36;25.20;96.00
14182;DHT22;7171;50.936;6.764;2023-06-22T10:51:03;25.00;96.20
14182;DHT22;7171;50.936;6.764;2023-06-22T10:53:29;24.70;96.60
14182;DHT22;7171;50.936;6.764;2023-06-22T10:55:56;24.50;96.70
14182;DHT22;7171;50.936;6.764;2023-06-22T10:58:24;24.30;97.20
14182;DHT22;7171;50.936;6.764;2023-06-22T11:00:51;24.20;97.50
14182;DHT22;7171;50.936;6.764;2023-06-22T11:03:18;24.00;97.90
14182;DHT22;7171;50.936;6.764;2023-06-22T11:05:45;23.80;98.20
14182;DHT22;7171;50.936;6.764;2023-06-22T11:08:13;23.80;98.60
14182;DHT22;7171;50.936;6.764;2023-06-22T11:10:40;23.70;99.20
14182;DHT22;7171;50.936;6.764;2023-06-22T11:13:06;23.60;99.60
14182;DHT22;7171;50.936;6.764;2023-06-22T11:15:36;23.60;99.90
14182;DHT22;7171;50.936;6.764;2023-06-22T11:18:03;23.50;99.90
14182;DHT22;7171;50.936;6.764;2023-06-22T11:20:33;23.50;99.90
14182;DHT22;7171;50.936;6.764;2023-06-22T11:23:03;23.40;99.90
14182;DHT22;7171;50.936;6.764;2023-06-22T11:25:30;23.50;99.90
14182;DHT22;7171;50.936;6.764;2023-06-22T11:27:57;23.30;99.90
14182;DHT22;7171;50.936;6.764;2023-06-22T11:30:24;23.30;99.90
14182;DHT22;7171;50.936;6.764;2023-06-22T11:32:52;23.30;99.90
14182;DHT22;7171;50.936;6.764;2023-06-22T11:35:18;23.20;99.90
14182;DHT22;7171;50.936;6.764;2023-06-22T11:37:45;23.20;99.90
14182;DHT22;7171;50.936;6.764;2023-06-22T11:40:12;23.20;99.90
14182;DHT22;7171;50.936;6.764;2023-06-22T11:42:39;23.20;99.90
14182;DHT22;7171;50.936;6.764;2023-06-22T11:45:07;23.30;99.90
14182;DHT22;7171;50.936;6.764;2023-06-22T11:47:34;23.30;99.90
14182;DHT22;7171;50.936;6.764;2023-06-22T11:50:03;23.40;99.90
14182;DHT22;7171;50.936;6.764;2023-06-22T11:52:30;23.30;99.90
14182;DHT22;7171;50.936;6.764;2023-06-22T11:54:57;23.30;99.90
14182;DHT22;7171;50.936;6.764;2023-06-22T11:57:25;23.20;99.90
14182;DHT22;7171;50.936;6.764;2023-06-22T11:59:51;23.20;99.90
14182;DHT22;7171;50.936;6.764;2023-06-22T12:02:18;23.10;99.90
14182;DHT22;7171;50.936;6.764;2023-06-22T12:04:45;23.10;99.90
14182;DHT22;7171;50.936;6.764;2023-06-22T12:07:13;23.10;99.90
14182;DHT22;7171;50.936;6.764;2023-06-22T12:09:40;23.10;99.90
14182;DHT22;7171;50.936;6.764;2023-06-22T12:12:07;23.10;99.90
14182;DHT22;7171;50.936;6.764;2023-06-22T12:14:34;23.20;99.90
14182;DHT22;7171;50.936;6.764;2023-06-22T12:17:00;23.20;99.90
14182;DHT22;7171;50.936;6.764;2023-06-22T12:19:27;23.30;99.90
14182;DHT22;7171;50.936;6.764;2023-06-22T12:21:54;23.30;99.90
14182;DHT22;7171;50.936;6.764;2023-06-22T12:24:22;23.30;99.90
14182;DHT22;7171;50.936;6.764;2023-06-22T12:26:49;23.30;99.90
14182;DHT22;7171;50.936;6.764;2023-06-22T12:29:16;23.30;99.90
14182;DHT22;7171;50.936;6.764;2023-06-22T12:31:43;23.30;99.90
14182;DHT22;7171;50.936;6.764;2023-06-22T12:34:09;23.30;99.90
14182;DHT22;7171;50.936;6.764;2023-06-22T12:36:36;23.30;99.90
14182;DHT22;7171;50.936;6.764;2023-06-22T12:39:03;23.30;99.90
14182;DHT22;7171;50.936;6.764;2023-06-22T12:41:32;23.30;99.90
14182;DHT22;7171;50.936;6.764;2023-06-22T12:44:06;23.40;99.90
14182;DHT22;7171;50.936;6.764;2023-06-22T12:46:34;23.40;99.90
14182;DHT22;7171;50.936;6.764;2023-06-22T12:49:03;23.50;99.90
14182;DHT22;7171;50.936;6.764;2023-06-22T12:51:30;23.50;99.90
14182;DHT22;7171;50.936;6.764;2023-06-22T12:53:57;23.50;99.90
14182;DHT22;7171;50.936;6.764;2023-06-22T12:56:24;23.50;99.90
14182;DHT22;7171;50.936;6.764;2023-06-22T12:58:52;23.50;99.90
14182;DHT22;7171;50.936;6.764;2023-06-22T13:01:19;23.50;99.90
14182;DHT22;7171;50.936;6.764;2023-06-22T13:03:46;23.50;99.90
14182;DHT22;7171;50.936;6.764;2023-06-22T13:06:12;23.60;99.90
14182;DHT22;7171;50.936;6.764;2023-06-22T13:08:39;23.60;99.90
14182;DHT22;7171;50.936;6.764;2023-06-22T13:11:06;23.60;99.90
14182;DHT22;7171;50.936;6.764;2023-06-22T13:13:32;23.90;99.90
14182;DHT22;7171;50.936;6.764;2023-06-22T13:16:01;23.70;99.90
14182;DHT22;7171;50.936;6.764;2023-06-22T13:18:28;23.70;99.90
14182;DHT22;7171;50.936;6.764;2023-06-22T13:20:55;23.70;99.90
14182;DHT22;7171;50.936;6.764;2023-06-22T13:23:23;23.80;99.90
14182;DHT22;7171;50.936;6.764;2023-06-22T13:25:50;23.80;99.90
14182;DHT22;7171;50.936;6.764;2023-06-22T13:28:17;23.80;99.90
14182;DHT22;7171;50.936;6.764;2023-06-22T13:30:44;23.80;99.90
14182;DHT22;7171;50.936;6.764;2023-06-22T13:33:14;23.90;99.90
14182;DHT22;7171;50.936;6.764;2023-06-22T13:35:41;23.90;99.90
14182;DHT22;7171;50.936;6.764;2023-06-22T13:38:08;24.00;99.90
14182;DHT22;7171;50.936;6.764;2023-06-22T13:40:35;24.00;99.90
14182;DHT22;7171;50.936;6.764;2023-06-22T13:43:03;24.00;99.90
14182;DHT22;7171;50.936;6.764;2023-06-22T13:45:30;24.10;99.90
14182;DHT22;7171;50.936;6.764;2023-06-22T13:47:57;24.20;99.90
14182;DHT22;7171;50.936;6.764;2023-06-22T13:50:25;24.30;99.90
14182;DHT22;7171;50.936;6.764;2023-06-22T13:52:51;24.40;99.90
14182;DHT22;7171;50.936;6.764;2023-06-22T13:55:18;24.40;99.90
14182;DHT22;7171;50.936;6.764;2023-06-22T13:57:46;24.50;99.90
14182;DHT22;7171;50.936;6.764;2023-06-22T14:00:14;24.60;99.90
14182;DHT22;7171;50.936;6.764;2023-06-22T14:02:41;24.70;99.90
14182;DHT22;7171;50.936;6.764;2023-06-22T14:05:08;24.80;99.90
14182;DHT22;7171;50.936;6.764;2023-06-22T14:07:37;24.80;99.90
14182;DHT22;7171;50.936;6.764;2023-06-22T14:10:05;24.80;99.90
14182;DHT22;7171;50.936;6.764;2023-06-22T14:12:32;24.80;99.90
14182;DHT22;7171;50.936;6.764;2023-06-22T14:14:59;24.80;99.90
14182;DHT22;7171;50.936;6.764;2023-06-22T14:17:25;24.80;99.90
14182;DHT22;7171;50.936;6.764;2023-06-22T14:19:52;24.70;99.90
14182;DHT22;7171;50.936;6.764;2023-06-22T14:22:19;24.70;99.90
14182;DHT22;7171;50.936;6.764;2023-06-22T14:24:48;24.70;99.90
14182;DHT22;7171;50.936;6.764;2023-06-22T14:27:15;24.70;99.90
14182;DHT22;7171;50.936;6.764;2023-06-22T14:29:42;24.70;99.90
14182;DHT22;7171;50.936;6.764;2023-06-22T14:32:09;24.70;99.90
14182;DHT22;7171;50.936;6.764;2023-06-22T14:34:36;24.70;99.90
14182;DHT22;7171;50.936;6.764;2023-06-22T14:37:05;24.60;99.90
14182;DHT22;7171;50.936;6.764;2023-06-22T14:39:32;24.60;99.90
14182;DHT22;7171;50.936;6.764;2023-06-22T14:42:00;24.60;99.90
14182;DHT22;7171;50.936;6.764;2023-06-22T14:44:28;24.60;99.90
14182;DHT22;7171;50.936;6.764;2023-06-22T14:46:55;24.60;99.90
14182;DHT22;7171;50.936;6.764;2023-06-22T14:49:22;24.60;99.90
14182;DHT22;7171;50.936;6.764;2023-06-22T14:51:48;24.60;99.90
14182;DHT22;7171;50.936;6.764;2023-06-22T14:54:15;24.60;99.90
14182;DHT22;7171;50.936;6.764;2023-06-22T14:56:42;24.60;99.90
14182;DHT22;7171;50.936;6.764;2023-06-22T14:59:10;24.70;99.90
14182;DHT22;7171;50.936;6.764;2023-06-22T15:01:37;24.70;99.90
14182;DHT22;7171;50.936;6.764;2023-06-22T15:04:04;24.70;99.90
14182;DHT22;7171;50.936;6.764;2023-06-22T15:06:31;24.60;99.90
14182;DHT22;7171;50.936;6.764;2023-06-22T15:08:57;24.70;99.90
14182;DHT22;7171;50.936;6.764;2023-06-22T15:11:24;24.60;99.90
14182;DHT22;7171;50.936;6.764;2023-06-22T15:13:51;24.60;99.90
14182;DHT22;7171;50.936;6.764;2023-06-22T15:16:19;24.60;99.90
14182;DHT22;7171;50.936;6.764;2023-06-22T15:18:46;24.50;99.90
14182;DHT22;7171;50.936;6.764;2023-06-22T15:21:14;24.50;99.90
14182;DHT22;7171;50.936;6.764;2023-06-22T15:23:42;24.50;99.90
14182;DHT22;7171;50.936;6.764;2023-06-22T15:26:09;24.40;99.90
14182;DHT22;7171;50.936;6.764;2023-06-22T15:28:35;24.40;99.90
14182;DHT22;7171;50.936;6.764;2023-06-22T15:31:03;24.20;99.90
14182;DHT22;7171;50.936;6.764;2023-06-22T15:33:32;24.00;99.90
14182;DHT22;7171;50.936;6.764;2023-06-22T15:35:58;23.80;99.90
14182;DHT22;7171;50.936;6.764;2023-06-22T15:38:29;23.50;99.90
14182;DHT22;7171;50.936;6.764;2023-06-22T15:40:56;23.30;99.90
14182;DHT22;7171;50.936;6.764;2023-06-22T15:43:23;23.10;99.90
14182;DHT22;7171;50.936;6.764;2023-06-22T15:45:50;23.00;99.90
14182;DHT22;7171;50.936;6.764;2023-06-22T15:48:19;22.80;99.90
14182;DHT22;7171;50.936;6.764;2023-06-22T15:50:47;22.70;99.90
14182;DHT22;7171;50.936;6.764;2023-06-22T15:53:14;22.60;99.90
14182;DHT22;7171;50.936;6.764;2023-06-22T15:55:41;22.50;99.90
14182;DHT22;7171;50.936;6.764;2023-06-22T15:58:07;22.40;99.90
14182;DHT22;7171;50.936;6.764;2023-06-22T16:00:35;22.40;99.90
14182;DHT22;7171;50.936;6.764;2023-06-22T16:03:02;22.30;99.90
14182;DHT22;7171;50.936;6.764;2023-06-22T16:05:28;22.20;99.90
14182;DHT22;7171;50.936;6.764;2023-06-22T16:07:56;22.20;99.90
14182;DHT22;7171;50.936;6.764;2023-06-22T16:10:23;22.10;99.90
14182;DHT22;7171;50.936;6.764;2023-06-22T16:12:50;22.00;99.90
14182;DHT22;7171;50.936;6.764;2023-06-22T16:15:17;22.00;99.90
14182;DHT22;7171;50.936;6.764;2023-06-22T16:17:44;22.00;99.90
14182;DHT22;7171;50.936;6.764;2023-06-22T16:20:11;21.90;99.90
14182;DHT22;7171;50.936;6.764;2023-06-22T16:22:42;21.90;99.90
14182;DHT22;7171;50.936;6.764;2023-06-22T16:25:10;21.90;99.90
14182;DHT22;7171;50.936;6.764;2023-06-22T16:27:36;21.90;99.90
14182;DHT22;7171;50.936;6.764;2023-06-22T16:30:05;22.00;99.90
14182;DHT22;7171;50.936;6.764;2023-06-22T16:32:32;22.00;99.90
14182;DHT22;7171;50.936;6.764;2023-06-22T16:34:59;22.00;99.90
14182;DHT22;7171;50.936;6.764;2023-06-22T16:37:25;22.10;99.90
14182;DHT22;7171;50.936;6.764;2023-06-22T16:39:52;22.10;99.90
14182;DHT22;7171;50.936;6.764;2023-06-22T16:42:20;22.10;99.90
14182;DHT22;7171;50.936;6.764;2023-06-22T16:44:47;22.10;99.90
14182;DHT22;7171;50.936;6.764;2023-06-22T16:47:14;22.10;99.90
14182;DHT22;7171;50.936;6.764;2023-06-22T16:49:41;22.00;99.90
14182;DHT22;7171;50.936;6.764;2023-06-22T16:52:08;22.00;99.90
14182;DHT22;7171;50.936;6.764;2023-06-22T16:54:35;21.90;99.90
14182;DHT22;7171;50.936;6.764;2023-06-22T16:57:02;21.90;99.90
14182;DHT22;7171;50.936;6.764;2023-06-22T16:59:32;21.90;99.90
14182;DHT22;7171;50.936;6.764;2023-06-22T17:01:59;21.90;99.90
14182;DHT22;7171;50.936;6.764;2023-06-22T17:04:29;21.80;99.90
14182;DHT22;7171;50.936;6.764;2023-06-22T17:07:00;21.80;99.90
14182;DHT22;7171;50.936;6.764;2023-06-22T17:09:27;21.80;99.90
14182;DHT22;7171;50.936;6.764;2023-06-22T17:11:54;21.80;99.90
14182;DHT22;7171;50.936;6.764;2023-06-22T17:14:21;21.80;99.90
14182;DHT22;7171;50.936;6.764;2023-06-22T17:16:50;21.90;99.90
14182;DHT22;7171;50.936;6.764;2023-06-22T17:19:19;21.80;99.90
14182;DHT22;7171;50.936;6.764;2023-06-22T17:21:46;21.90;99.90
14182;DHT22;7171;50.936;6.764;2023-06-22T17:24:15;21.90;99.90
14182;DHT22;7171;50.936;6.764;2023-06-22T17:26:45;22.00;99.90
14182;DHT22;7171;50.936;6.764;2023-06-22T17:29:13;22.00;99.90
14182;DHT22;7171;50.936;6.764;2023-06-22T17:31:41;22.10;99.90
14182;DHT22;7171;50.936;6.764;2023-06-22T17:34:11;22.10;99.90
14182;DHT22;7171;50.936;6.764;2023-06-22T17:36:43;22.10;99.90
14182;DHT22;7171;50.936;6.764;2023-06-22T17:39:11;22.10;99.90
14182;DHT22;7171;50.936;6.764;2023-06-22T17:41:39;22.10;99.90
14182;DHT22;7171;50.936;6.764;2023-06-22T17:44:06;22.20;99.90
14182;DHT22;7171;50.936;6.764;2023-06-22T17:46:34;22.20;99.90
14182;DHT22;7171;50.936;6.764;2023-06-22T17:49:01;22.20;99.90
14182;DHT22;7171;50.936;6.764;2023-06-22T17:51:29;22.20;99.90
14182;DHT22;7171;50.936;6.764;2023-06-22T17:53:56;22.10;99.90
14182;DHT22;7171;50.936;6.764;2023-06-22T17:56:24;22.10;99.90
14182;DHT22;7171;50.936;6.764;2023-06-22T17:58:52;22.10;99.90
14182;DHT22;7171;50.936;6.764;2023-06-22T18:01:30;22.00;99.90
14182;DHT22;7171;50.936;6.764;2023-06-22T18:04:00;22.00;99.90
14182;DHT22;7171;50.936;6.764;2023-06-22T18:06:30;21.90;99.90
14182;DHT22;7171;50.936;6.764;2023-06-22T18:08:59;21.80;99.90
14182;DHT22;7171;50.936;6.764;2023-06-22T18:11:31;21.80;99.90
14182;DHT22;7171;50.936;6.764;2023-06-22T18:13:59;21.70;99.90
14182;DHT22;7171;50.936;6.764;2023-06-22T18:16:27;21.70;99.90
14182;DHT22;7171;50.936;6.764;2023-06-22T18:18:55;21.60;99.90
14182;DHT22;7171;50.936;6.764;2023-06-22T18:21:23;21.40;99.90
14182;DHT22;7171;50.936;6.764;2023-06-22T18:23:52;21.40;99.90
14182;DHT22;7171;50.936;6.764;2023-06-22T18:26:20;21.30;99.90
14182;DHT22;7171;50.936;6.764;2023-06-22T18:28:50;21.20;99.90
14182;DHT22;7171;50.936;6.764;2023-06-22T18:31:18;21.10;99.90
14182;DHT22;7171;50.936;6.764;2023-06-22T18:33:44;21.10;99.90
14182;DHT22;7171;50.936;6.764;2023-06-22T18:36:12;21.00;99.90
14182;DHT22;7171;50.936;6.764;2023-06-22T18:38:41;20.90;99.90
14182;DHT22;7171;50.936;6.764;2023-06-22T18:41:21;20.90;99.90
14182;DHT22;7171;50.936;6.764;2023-06-22T18:43:51;20.80;99.90
14182;DHT22;7171;50.936;6.764;2023-06-22T18:46:32;20.80;99.90
14182;DHT22;7171;50.936;6.764;2023-06-22T18:49:01;20.70;99.90
14182;DHT22;7171;50.936;6.764;2023-06-22T18:51:29;20.10;99.90
14182;DHT22;7171;50.936;6.764;2023-06-22T18:54:05;20.60;99.90
14182;DHT22;7171;50.936;6.764;2023-06-22T18:56:51;20.50;99.90
14182;DHT22;7171;50.936;6.764;2023-06-22T18:59:43;20.40;99.90
14182;DHT22;7171;50.936;6.764;2023-06-22T19:07:05;20.30;99.90
14182;DHT22;7171;50.936;6.764;2023-06-22T19:09:33;20.10;99.90
14182;DHT22;7171;50.936;6.764;2023-06-22T19:12:20;20.10;99.90
14182;DHT22;7171;50.936;6.764;2023-06-22T19:15:10;20.00;99.90
14182;DHT22;7171;50.936;6.764;2023-06-22T19:17:38;19.80;99.90
14182;DHT22;7171;50.936;6.764;2023-06-22T19:20:05;19.70;99.90
14182;DHT22;7171;50.936;6.764;2023-06-22T19:22:47;19.60;99.90
14182;DHT22;7171;50.936;6.764;2023-06-22T19:25:18;19.60;99.90
14182;DHT22;7171;50.936;6.764;2023-06-22T19:27:47;19.60;99.90
14182;DHT22;7171;50.936;6.764;2023-06-22T19:30:16;19.50;99.90
14182;DHT22;7171;50.936;6.764;2023-06-22T19:32:44;19.50;99.90
14182;DHT22;7171;50.936;6.764;2023-06-22T19:35:11;19.30;99.90
14182;DHT22;7171;50.936;6.764;2023-06-22T19:37:38;19.30;99.90
14182;DHT22;7171;50.936;6.764;2023-06-22T19:40:09;19.20;99.90
14182;DHT22;7171;50.936;6.764;2023-06-22T19:42:37;19.30;99.90
14182;DHT22;7171;50.936;6.764;2023-06-22T19:45:07;19.20;99.90
14182;DHT22;7171;50.936;6.764;2023-06-22T19:47:34;19.30;99.90
14182;DHT22;7171;50.936;6.764;2023-06-22T19:50:02;19.10;99.90
14182;DHT22;7171;50.936;6.764;2023-06-22T19:52:36;19.10;99.90
14182;DHT22;7171;50.936;6.764;2023-06-22T19:55:03;19.00;99.90
14182;DHT22;7171;50.936;6.764;2023-06-22T19:57:37;18.80;99.90
14182;DHT22;7171;50.936;6.764;2023-06-22T20:00:06;18.70;99.90
14182;DHT22;7171;50.936;6.764;2023-06-22T20:02:41;18.50;99.90
14182;DHT22;7171;50.936;6.764;2023-06-22T20:05:10;18.40;99.90
14182;DHT22;7171;50.936;6.764;2023-06-22T20:07:38;18.30;99.90
14182;DHT22;7171;50.936;6.764;2023-06-22T20:10:09;18.20;99.90
14182;DHT22;7171;50.936;6.764;2023-06-22T20:12:37;18.20;99.90
14182;DHT22;7171;50.936;6.764;2023-06-22T20:15:15;18.10;99.90
14182;DHT22;7171;50.936;6.764;2023-06-22T20:17:44;18.00;99.90
14182;DHT22;7171;50.936;6.764;2023-06-22T20:20:19;18.00;99.90
14182;DHT22;7171;50.936;6.764;2023-06-22T20:22:46;17.90;99.90
14182;DHT22;7171;50.936;6.764;2023-06-22T20:25:18;17.80;99.90
14182;DHT22;7171;50.936;6.764;2023-06-22T20:27:45;17.80;99.90
14182;DHT22;7171;50.936;6.764;2023-06-22T20:30:14;17.80;99.90
14182;DHT22;7171;50.936;6.764;2023-06-22T20:32:49;17.80;99.90
14182;DHT22;7171;50.936;6.764;2023-06-22T20:35:17;17.80;99.90
14182;DHT22;7171;50.936;6.764;2023-06-22T20:37:44;17.80;99.90
14182;DHT22;7171;50.936;6.764;2023-06-22T20:40:11;17.90;99.90
14182;DHT22;7171;50.936;6.764;2023-06-22T20:42:38;17.90;99.90
14182;DHT22;7171;50.936;6.764;2023-06-22T20:45:06;17.90;99.90
14182;DHT22;7171;50.936;6.764;2023-06-22T20:47:34;17.90;99.90
14182;DHT22;7171;50.936;6.764;2023-06-22T20:50:01;17.90;99.90
14182;DHT22;7171;50.936;6.764;2023-06-22T20:52:28;18.00;99.90
14182;DHT22;7171;50.936;6.764;2023-06-22T20:54:55;18.10;99.90
14182;DHT22;7171;50.936;6.764;2023-06-22T20:57:22;18.10;99.90
14182;DHT22;7171;50.936;6.764;2023-06-22T20:59:49;18.10;99.90
14182;DHT22;7171;50.936;6.764;2023-06-22T21:02:15;18.20;99.90